sensor_id;sensor_type;location;lat;lon;timestamp;temperature;humidity
40952;DHT22;26682;51.660;19.338;2022-11-10T00:01:21;7.70;12.90
40952;DHT22;26682;51.660;19.338;2022-11-10T00:03:25;7.70;8.10
40952;DHT22;26682;51.660;19.338;2022-11-10T00:05:32;7.70;3.20
40952;DHT22;26682;51.660;19.338;2022-11-10T00:07:36;7.70;4.30
40952;DHT22;26682;51.660;19.338;2022-11-10T00:09:41;7.70;1.00
40952;DHT22;26682;51.660;19.338;2022-11-10T00:11:46;7.70;1.00
40952;DHT22;26682;51.660;19.338;2022-11-10T00:13:50;7.70;1.00
40952;DHT22;26682;51.660;19.338;2022-11-10T00:16:13;7.70;1.20
40952;DHT22;26682;51.660;19.338;2022-11-10T00:18:37;7.80;1.40
40952;DHT22;26682;51.660;19.338;2022-11-10T00:20:42;7.80;1.00
40952;DHT22;26682;51.660;19.338;2022-11-10T00:22:46;7.80;1.00
40952;DHT22;26682;51.660;19.338;2022-11-10T00:24:51;7.80;1.00
40952;DHT22;26682;51.660;19.338;2022-11-10T00:26:56;7.80;1.00
40952;DHT22;26682;51.660;19.338;2022-11-10T00:29:01;7.80;1.00
40952;DHT22;26682;51.660;19.338;2022-11-10T00:31:06;7.80;1.00
40952;DHT22;26682;51.660;19.338;2022-11-10T00:33:11;7.80;1.00
40952;DHT22;26682;51.660;19.338;2022-11-10T00:35:15;7.90;1.00
40952;DHT22;26682;51.660;19.338;2022-11-10T00:37:20;7.90;1.00
40952;DHT22;26682;51.660;19.338;2022-11-10T00:39:24;7.90;1.00
40952;DHT22;26682;51.660;19.338;2022-11-10T00:41:29;7.90;1.00
40952;DHT22;26682;51.660;19.338;2022-11-10T00:43:33;8.00;1.00
40952;DHT22;26682;51.660;19.338;2022-11-10T00:45:41;8.00;1.00
40952;DHT22;26682;51.660;19.338;2022-11-10T00:47:46;7.90;1.00
40952;DHT22;26682;51.660;19.338;2022-11-10T00:49:50;8.00;1.00
40952;DHT22;26682;51.660;19.338;2022-11-10T00:51:55;8.00;1.00
40952;DHT22;26682;51.660;19.338;2022-11-10T00:53:59;8.00;1.00
40952;DHT22;26682;51.660;19.338;2022-11-10T00:56:04;8.00;1.00
40952;DHT22;26682;51.660;19.338;2022-11-10T00:58:09;8.00;1.00
40952;DHT22;26682;51.660;19.338;2022-11-10T01:00:13;8.10;1.00
40952;DHT22;26682;51.660;19.338;2022-11-10T01:02:18;8.10;1.00
40952;DHT22;26682;51.660;19.338;2022-11-10T01:04:23;8.10;1.00
40952;DHT22;26682;51.660;19.338;2022-11-10T01:06:27;8.10;1.00
40952;DHT22;26682;51.660;19.338;2022-11-10T01:08:33;8.10;1.00
40952;DHT22;26682;51.660;19.338;2022-11-10T01:10:37;8.10;1.00
40952;DHT22;26682;51.660;19.338;2022-11-10T01:12:42;8.10;1.00
40952;DHT22;26682;51.660;19.338;2022-11-10T01:14:47;8.10;1.00
40952;DHT22;26682;51.660;19.338;2022-11-10T01:16:51;8.10;1.00
40952;DHT22;26682;51.660;19.338;2022-11-10T01:18:58;8.10;1.00
40952;DHT22;26682;51.660;19.338;2022-11-10T01:21:04;8.10;1.00
40952;DHT22;26682;51.660;19.338;2022-11-10T01:23:09;8.10;1.00
40952;DHT22;26682;51.660;19.338;2022-11-10T01:25:14;8.20;1.00
40952;DHT22;26682;51.660;19.338;2022-11-10T01:27:18;8.20;1.00
40952;DHT22;26682;51.660;19.338;2022-11-10T01:29:23;8.20;1.00
40952;DHT22;26682;51.660;19.338;2022-11-10T01:31:28;8.20;1.00
40952;DHT22;26682;51.660;19.338;2022-11-10T01:33:33;8.20;1.00
40952;DHT22;26682;51.660;19.338;2022-11-10T01:35:37;8.20;1.00
40952;DHT22;26682;51.660;19.338;2022-11-10T01:37:42;8.20;1.00
40952;DHT22;26682;51.660;19.338;2022-11-10T01:39:46;8.20;1.00
40952;DHT22;26682;51.660;19.338;2022-11-10T01:41:51;8.20;1.00
40952;DHT22;26682;51.660;19.338;2022-11-10T01:44:16;8.20;1.00
40952;DHT22;26682;51.660;19.338;2022-11-10T01:46:21;8.20;1.00
40952;DHT22;26682;51.660;19.338;2022-11-10T01:48:33;8.20;1.00
40952;DHT22;26682;51.660;19.338;2022-11-10T01:50:40;8.20;1.00
40952;DHT22;26682;51.660;19.338;2022-11-10T01:52:47;8.10;1.00
40952;DHT22;26682;51.660;19.338;2022-11-10T01:54:53;8.20;1.00
40952;DHT22;26682;51.660;19.338;2022-11-10T01:57:00;8.20;1.00
40952;DHT22;26682;51.660;19.338;2022-11-10T01:59:10;8.10;1.00
40952;DHT22;26682;51.660;19.338;2022-11-10T02:01:16;8.10;1.00
40952;DHT22;26682;51.660;19.338;2022-11-10T02:05:35;8.20;1.00
40952;DHT22;26682;51.660;19.338;2022-11-10T02:07:39;8.20;1.00
40952;DHT22;26682;51.660;19.338;2022-11-10T02:09:45;8.10;1.00
40952;DHT22;26682;51.660;19.338;2022-11-10T02:11:51;8.20;1.00
40952;DHT22;26682;51.660;19.338;2022-11-10T02:13:56;8.10;1.00
40952;DHT22;26682;51.660;19.338;2022-11-10T02:16:01;8.10;1.00
40952;DHT22;26682;51.660;19.338;2022-11-10T02:18:06;8.20;1.00
40952;DHT22;26682;51.660;19.338;2022-11-10T02:20:12;8.20;1.00
40952;DHT22;26682;51.660;19.338;2022-11-10T02:22:16;8.20;1.00
40952;DHT22;26682;51.660;19.338;2022-11-10T02:24:21;8.20;1.00
40952;DHT22;26682;51.660;19.338;2022-11-10T02:26:28;8.20;1.00
40952;DHT22;26682;51.660;19.338;2022-11-10T02:28:35;8.20;1.00
40952;DHT22;26682;51.660;19.338;2022-11-10T02:30:40;8.20;1.00
40952;DHT22;26682;51.660;19.338;2022-11-10T02:32:45;8.20;1.00
40952;DHT22;26682;51.660;19.338;2022-11-10T02:34:49;8.20;1.00
40952;DHT22;26682;51.660;19.338;2022-11-10T02:36:54;8.20;1.00
40952;DHT22;26682;51.660;19.338;2022-11-10T02:38:58;8.20;1.00
40952;DHT22;26682;51.660;19.338;2022-11-10T02:41:03;8.20;1.00
40952;DHT22;26682;51.660;19.338;2022-11-10T02:43:10;8.20;1.00
40952;DHT22;26682;51.660;19.338;2022-11-10T02:45:16;8.30;1.00
40952;DHT22;26682;51.660;19.338;2022-11-10T02:47:20;8.20;1.00
40952;DHT22;26682;51.660;19.338;2022-11-10T02:49:24;8.30;1.00
40952;DHT22;26682;51.660;19.338;2022-11-10T02:51:29;8.30;1.00
40952;DHT22;26682;51.660;19.338;2022-11-10T02:53:33;8.30;1.00
40952;DHT22;26682;51.660;19.338;2022-11-10T02:55:38;8.30;1.00
40952;DHT22;26682;51.660;19.338;2022-11-10T02:57:42;8.30;1.00
40952;DHT22;26682;51.660;19.338;2022-11-10T02:59:47;8.30;1.00
40952;DHT22;26682;51.660;19.338;2022-11-10T03:01:52;8.30;1.00
40952;DHT22;26682;51.660;19.338;2022-11-10T03:03:56;8.30;1.00
40952;DHT22;26682;51.660;19.338;2022-11-10T03:06:01;8.30;1.00
40952;DHT22;26682;51.660;19.338;2022-11-10T03:08:06;8.30;1.00
40952;DHT22;26682;51.660;19.338;2022-11-10T03:10:10;8.30;1.00
40952;DHT22;26682;51.660;19.338;2022-11-10T03:12:16;8.30;1.00
40952;DHT22;26682;51.660;19.338;2022-11-10T03:14:21;8.30;1.00
40952;DHT22;26682;51.660;19.338;2022-11-10T03:16:25;8.30;1.00
40952;DHT22;26682;51.660;19.338;2022-11-10T03:18:29;8.30;1.00
40952;DHT22;26682;51.660;19.338;2022-11-10T03:20:34;8.30;1.00
40952;DHT22;26682;51.660;19.338;2022-11-10T03:22:38;8.30;1.00
40952;DHT22;26682;51.660;19.338;2022-11-10T03:24:42;8.30;1.00
40952;DHT22;26682;51.660;19.338;2022-11-10T03:26:47;8.30;1.00
40952;DHT22;26682;51.660;19.338;2022-11-10T03:28:52;8.30;1.00
40952;DHT22;26682;51.660;19.338;2022-11-10T03:30:56;8.30;1.00
40952;DHT22;26682;51.660;19.338;2022-11-10T03:33:01;8.30;1.00
40952;DHT22;26682;51.660;19.338;2022-11-10T03:35:05;8.30;1.00
40952;DHT22;26682;51.660;19.338;2022-11-10T03:37:10;8.30;1.00
40952;DHT22;26682;51.660;19.338;2022-11-10T03:39:14;8.30;1.00
40952;DHT22;26682;51.660;19.338;2022-11-10T03:41:19;8.30;1.00
40952;DHT22;26682;51.660;19.338;2022-11-10T03:43:24;8.30;1.00
40952;DHT22;26682;51.660;19.338;2022-11-10T03:45:28;8.30;1.00
40952;DHT22;26682;51.660;19.338;2022-11-10T03:47:33;8.40;1.00
40952;DHT22;26682;51.660;19.338;2022-11-10T03:49:37;8.40;1.00
40952;DHT22;26682;51.660;19.338;2022-11-10T03:51:42;8.40;1.00
40952;DHT22;26682;51.660;19.338;2022-11-10T03:53:47;8.40;1.00
40952;DHT22;26682;51.660;19.338;2022-11-10T03:55:51;8.40;1.00
40952;DHT22;26682;51.660;19.338;2022-11-10T03:58:00;8.40;1.00
40952;DHT22;26682;51.660;19.338;2022-11-10T04:00:06;8.40;1.00
40952;DHT22;26682;51.660;19.338;2022-11-10T04:02:10;8.40;2.30
40952;DHT22;26682;51.660;19.338;2022-11-10T04:04:15;8.40;9.40
40952;DHT22;26682;51.660;19.338;2022-11-10T04:06:38;8.40;25.90
40952;DHT22;26682;51.660;19.338;2022-11-10T04:09:03;8.50;55.60
40952;DHT22;26682;51.660;19.338;2022-11-10T04:11:07;8.40;77.50
40952;DHT22;26682;51.660;19.338;2022-11-10T04:13:12;8.40;99.90
40952;DHT22;26682;51.660;19.338;2022-11-10T04:15:35;8.50;99.90
40952;DHT22;26682;51.660;19.338;2022-11-10T04:17:49;8.40;99.90
40952;DHT22;26682;51.660;19.338;2022-11-10T04:19:54;8.40;99.90
40952;DHT22;26682;51.660;19.338;2022-11-10T04:21:59;8.40;99.90
40952;DHT22;26682;51.660;19.338;2022-11-10T04:24:04;8.40;99.90
40952;DHT22;26682;51.660;19.338;2022-11-10T04:26:10;8.40;99.90
40952;DHT22;26682;51.660;19.338;2022-11-10T04:28:33;8.40;99.90
40952;DHT22;26682;51.660;19.338;2022-11-10T04:30:39;8.40;99.90
40952;DHT22;26682;51.660;19.338;2022-11-10T04:32:44;8.40;99.90
40952;DHT22;26682;51.660;19.338;2022-11-10T04:34:49;8.40;99.90
40952;DHT22;26682;51.660;19.338;2022-11-10T04:36:53;8.40;99.90
40952;DHT22;26682;51.660;19.338;2022-11-10T04:38:58;8.40;99.90
40952;DHT22;26682;51.660;19.338;2022-11-10T04:41:03;8.40;99.90
40952;DHT22;26682;51.660;19.338;2022-11-10T04:43:08;8.30;99.90
40952;DHT22;26682;51.660;19.338;2022-11-10T04:45:12;8.30;99.90
40952;DHT22;26682;51.660;19.338;2022-11-10T04:47:16;8.30;99.90
40952;DHT22;26682;51.660;19.338;2022-11-10T04:49:21;8.30;99.90
40952;DHT22;26682;51.660;19.338;2022-11-10T04:51:34;8.30;99.90
40952;DHT22;26682;51.660;19.338;2022-11-10T04:53:39;8.30;99.90
40952;DHT22;26682;51.660;19.338;2022-11-10T04:55:44;8.30;99.90
40952;DHT22;26682;51.660;19.338;2022-11-10T04:57:49;8.30;99.90
40952;DHT22;26682;51.660;19.338;2022-11-10T04:59:54;8.20;99.90
40952;DHT22;26682;51.660;19.338;2022-11-10T05:01:58;8.20;99.90
40952;DHT22;26682;51.660;19.338;2022-11-10T05:04:03;8.20;99.90
40952;DHT22;26682;51.660;19.338;2022-11-10T05:06:08;8.20;99.90
40952;DHT22;26682;51.660;19.338;2022-11-10T05:08:14;8.20;99.90
40952;DHT22;26682;51.660;19.338;2022-11-10T05:10:19;8.20;99.90
40952;DHT22;26682;51.660;19.338;2022-11-10T05:12:23;8.20;99.90
40952;DHT22;26682;51.660;19.338;2022-11-10T05:14:28;8.20;99.90
40952;DHT22;26682;51.660;19.338;2022-11-10T05:16:32;8.20;99.90
40952;DHT22;26682;51.660;19.338;2022-11-10T05:18:36;8.20;99.90
40952;DHT22;26682;51.660;19.338;2022-11-10T05:20:41;8.20;99.90
40952;DHT22;26682;51.660;19.338;2022-11-10T05:22:47;8.20;99.90
40952;DHT22;26682;51.660;19.338;2022-11-10T05:25:12;8.20;99.90
40952;DHT22;26682;51.660;19.338;2022-11-10T05:27:17;8.20;99.90
40952;DHT22;26682;51.660;19.338;2022-11-10T05:29:21;8.20;99.90
40952;DHT22;26682;51.660;19.338;2022-11-10T05:31:26;8.30;99.90
40952;DHT22;26682;51.660;19.338;2022-11-10T05:33:31;8.30;99.90
40952;DHT22;26682;51.660;19.338;2022-11-10T05:35:36;8.30;99.90
40952;DHT22;26682;51.660;19.338;2022-11-10T05:37:40;8.30;99.90
40952;DHT22;26682;51.660;19.338;2022-11-10T05:39:45;8.30;99.90
40952;DHT22;26682;51.660;19.338;2022-11-10T05:41:49;8.30;99.90
40952;DHT22;26682;51.660;19.338;2022-11-10T05:43:54;8.30;99.90
40952;DHT22;26682;51.660;19.338;2022-11-10T05:45:59;8.30;99.90
40952;DHT22;26682;51.660;19.338;2022-11-10T05:48:04;8.40;99.90
40952;DHT22;26682;51.660;19.338;2022-11-10T05:50:08;8.40;99.90
40952;DHT22;26682;51.660;19.338;2022-11-10T05:52:14;8.40;99.90
40952;DHT22;26682;51.660;19.338;2022-11-10T05:54:18;8.40;99.90
40952;DHT22;26682;51.660;19.338;2022-11-10T05:56:23;8.40;99.90
40952;DHT22;26682;51.660;19.338;2022-11-10T05:58:27;8.40;99.90
40952;DHT22;26682;51.660;19.338;2022-11-10T06:00:32;8.40;99.90
40952;DHT22;26682;51.660;19.338;2022-11-10T06:02:36;8.50;99.90
40952;DHT22;26682;51.660;19.338;2022-11-10T06:04:41;8.50;99.90
40952;DHT22;26682;51.660;19.338;2022-11-10T06:06:46;8.50;99.90
40952;DHT22;26682;51.660;19.338;2022-11-10T06:08:50;8.50;99.90
40952;DHT22;26682;51.660;19.338;2022-11-10T06:10:55;8.50;99.90
40952;DHT22;26682;51.660;19.338;2022-11-10T06:13:01;8.50;99.90
40952;DHT22;26682;51.660;19.338;2022-11-10T06:15:06;8.50;99.90
40952;DHT22;26682;51.660;19.338;2022-11-10T06:17:11;8.60;99.90
40952;DHT22;26682;51.660;19.338;2022-11-10T06:19:16;8.60;99.90
40952;DHT22;26682;51.660;19.338;2022-11-10T06:21:20;8.60;99.90
40952;DHT22;26682;51.660;19.338;2022-11-10T06:23:25;8.60;99.90
40952;DHT22;26682;51.660;19.338;2022-11-10T06:25:31;8.60;99.90
40952;DHT22;26682;51.660;19.338;2022-11-10T06:27:36;8.60;99.90
40952;DHT22;26682;51.660;19.338;2022-11-10T06:29:41;8.60;99.90
40952;DHT22;26682;51.660;19.338;2022-11-10T06:31:46;8.60;99.90
40952;DHT22;26682;51.660;19.338;2022-11-10T06:33:50;8.60;99.90
40952;DHT22;26682;51.660;19.338;2022-11-10T06:35:55;8.60;99.90
40952;DHT22;26682;51.660;19.338;2022-11-10T06:40:08;8.70;99.90
40952;DHT22;26682;51.660;19.338;2022-11-10T06:42:14;8.70;99.90
40952;DHT22;26682;51.660;19.338;2022-11-10T06:44:19;8.70;99.90
40952;DHT22;26682;51.660;19.338;2022-11-10T06:46:24;8.70;99.90
40952;DHT22;26682;51.660;19.338;2022-11-10T06:48:29;8.70;99.90
40952;DHT22;26682;51.660;19.338;2022-11-10T06:50:34;8.80;99.90
40952;DHT22;26682;51.660;19.338;2022-11-10T06:52:39;8.90;99.90
40952;DHT22;26682;51.660;19.338;2022-11-10T06:54:43;8.90;99.90
40952;DHT22;26682;51.660;19.338;2022-11-10T06:56:48;8.90;99.90
40952;DHT22;26682;51.660;19.338;2022-11-10T06:58:53;8.90;99.90
40952;DHT22;26682;51.660;19.338;2022-11-10T07:00:59;8.90;99.90
40952;DHT22;26682;51.660;19.338;2022-11-10T07:03:07;8.90;99.90
40952;DHT22;26682;51.660;19.338;2022-11-10T07:05:12;8.90;99.90
40952;DHT22;26682;51.660;19.338;2022-11-10T07:07:18;8.90;99.90
40952;DHT22;26682;51.660;19.338;2022-11-10T07:09:23;8.90;99.90
40952;DHT22;26682;51.660;19.338;2022-11-10T07:11:27;9.00;99.90
40952;DHT22;26682;51.660;19.338;2022-11-10T07:13:32;9.00;99.90
40952;DHT22;26682;51.660;19.338;2022-11-10T07:15:36;9.00;99.90
40952;DHT22;26682;51.660;19.338;2022-11-10T07:17:41;9.00;99.90
40952;DHT22;26682;51.660;19.338;2022-11-10T07:19:46;9.00;99.90
40952;DHT22;26682;51.660;19.338;2022-11-10T07:21:50;9.00;99.90
40952;DHT22;26682;51.660;19.338;2022-11-10T07:23:57;9.00;99.90
40952;DHT22;26682;51.660;19.338;2022-11-10T07:26:02;9.00;99.90
40952;DHT22;26682;51.660;19.338;2022-11-10T07:28:07;9.10;99.90
40952;DHT22;26682;51.660;19.338;2022-11-10T07:30:13;9.10;99.90
40952;DHT22;26682;51.660;19.338;2022-11-10T07:32:18;9.10;99.90
40952;DHT22;26682;51.660;19.338;2022-11-10T07:34:22;9.20;99.90
40952;DHT22;26682;51.660;19.338;2022-11-10T07:36:27;9.20;99.90
40952;DHT22;26682;51.660;19.338;2022-11-10T07:38:33;9.20;99.90
40952;DHT22;26682;51.660;19.338;2022-11-10T07:40:37;9.20;99.90
40952;DHT22;26682;51.660;19.338;2022-11-10T07:42:42;9.20;99.90
40952;DHT22;26682;51.660;19.338;2022-11-10T07:44:47;9.30;99.90
40952;DHT22;26682;51.660;19.338;2022-11-10T07:46:51;9.30;99.90
40952;DHT22;26682;51.660;19.338;2022-11-10T07:48:56;9.30;99.90
40952;DHT22;26682;51.660;19.338;2022-11-10T07:51:01;9.30;99.90
40952;DHT22;26682;51.660;19.338;2022-11-10T07:53:11;9.30;99.90
40952;DHT22;26682;51.660;19.338;2022-11-10T07:55:16;9.40;99.90
40952;DHT22;26682;51.660;19.338;2022-11-10T07:57:21;9.40;99.90
40952;DHT22;26682;51.660;19.338;2022-11-10T07:59:25;9.40;99.90
40952;DHT22;26682;51.660;19.338;2022-11-10T08:01:30;9.40;99.90
40952;DHT22;26682;51.660;19.338;2022-11-10T08:03:35;9.70;99.90
40952;DHT22;26682;51.660;19.338;2022-11-10T08:05:40;9.60;99.90
40952;DHT22;26682;51.660;19.338;2022-11-10T08:07:45;9.60;99.90
40952;DHT22;26682;51.660;19.338;2022-11-10T08:09:50;9.60;99.90
40952;DHT22;26682;51.660;19.338;2022-11-10T08:11:55;9.60;99.90
40952;DHT22;26682;51.660;19.338;2022-11-10T08:13:59;9.70;99.90
40952;DHT22;26682;51.660;19.338;2022-11-10T08:16:04;9.70;99.90
40952;DHT22;26682;51.660;19.338;2022-11-10T08:18:21;9.70;99.90
40952;DHT22;26682;51.660;19.338;2022-11-10T08:20:26;9.70;99.90
40952;DHT22;26682;51.660;19.338;2022-11-10T08:22:31;9.70;99.90
40952;DHT22;26682;51.660;19.338;2022-11-10T08:24:36;9.80;99.90
40952;DHT22;26682;51.660;19.338;2022-11-10T08:26:41;9.80;99.90
40952;DHT22;26682;51.660;19.338;2022-11-10T08:28:45;9.80;99.90
40952;DHT22;26682;51.660;19.338;2022-11-10T08:30:50;9.90;99.90
40952;DHT22;26682;51.660;19.338;2022-11-10T08:32:58;9.90;99.90
40952;DHT22;26682;51.660;19.338;2022-11-10T08:35:04;9.90;99.90
40952;DHT22;26682;51.660;19.338;2022-11-10T08:37:09;10.00;99.90
40952;DHT22;26682;51.660;19.338;2022-11-10T08:39:13;10.10;99.90
40952;DHT22;26682;51.660;19.338;2022-11-10T08:41:18;10.10;99.90
40952;DHT22;26682;51.660;19.338;2022-11-10T08:43:23;10.10;99.90
40952;DHT22;26682;51.660;19.338;2022-11-10T08:45:27;10.20;99.90
40952;DHT22;26682;51.660;19.338;2022-11-10T08:47:32;10.20;99.90
40952;DHT22;26682;51.660;19.338;2022-11-10T08:49:37;10.30;99.90
40952;DHT22;26682;51.660;19.338;2022-11-10T08:51:41;10.30;99.90
40952;DHT22;26682;51.660;19.338;2022-11-10T08:53:46;10.30;99.90
40952;DHT22;26682;51.660;19.338;2022-11-10T08:55:51;10.40;99.90
40952;DHT22;26682;51.660;19.338;2022-11-10T08:58:00;10.40;99.90
40952;DHT22;26682;51.660;19.338;2022-11-10T09:00:06;10.50;99.90
40952;DHT22;26682;51.660;19.338;2022-11-10T09:02:11;10.50;99.90
40952;DHT22;26682;51.660;19.338;2022-11-10T09:04:15;10.60;99.90
40952;DHT22;26682;51.660;19.338;2022-11-10T09:06:20;10.60;99.90
40952;DHT22;26682;51.660;19.338;2022-11-10T09:08:25;10.60;99.90
40952;DHT22;26682;51.660;19.338;2022-11-10T09:10:39;10.60;99.90
40952;DHT22;26682;51.660;19.338;2022-11-10T09:12:44;10.60;99.90
40952;DHT22;26682;51.660;19.338;2022-11-10T09:14:48;10.60;99.90
40952;DHT22;26682;51.660;19.338;2022-11-10T09:16:52;10.60;99.90
40952;DHT22;26682;51.660;19.338;2022-11-10T09:18:57;10.60;99.90
40952;DHT22;26682;51.660;19.338;2022-11-10T09:21:03;10.70;99.90
40952;DHT22;26682;51.660;19.338;2022-11-10T09:23:14;10.80;99.90
40952;DHT22;26682;51.660;19.338;2022-11-10T09:25:20;10.80;99.90
40952;DHT22;26682;51.660;19.338;2022-11-10T09:27:24;10.80;99.90
40952;DHT22;26682;51.660;19.338;2022-11-10T09:29:29;10.90;99.90
40952;DHT22;26682;51.660;19.338;2022-11-10T09:31:34;10.90;99.90
40952;DHT22;26682;51.660;19.338;2022-11-10T09:33:38;10.90;99.90
40952;DHT22;26682;51.660;19.338;2022-11-10T09:35:43;10.90;99.90
40952;DHT22;26682;51.660;19.338;2022-11-10T09:37:48;11.00;99.90
40952;DHT22;26682;51.660;19.338;2022-11-10T09:39:53;11.00;99.90
40952;DHT22;26682;51.660;19.338;2022-11-10T09:41:57;11.10;99.90
40952;DHT22;26682;51.660;19.338;2022-11-10T09:44:13;11.30;99.90
40952;DHT22;26682;51.660;19.338;2022-11-10T09:46:25;11.20;99.90
40952;DHT22;26682;51.660;19.338;2022-11-10T09:48:48;11.20;99.90
40952;DHT22;26682;51.660;19.338;2022-11-10T09:51:02;11.20;99.90
40952;DHT22;26682;51.660;19.338;2022-11-10T09:53:14;11.20;99.90
40952;DHT22;26682;51.660;19.338;2022-11-10T09:55:32;11.30;99.90
40952;DHT22;26682;51.660;19.338;2022-11-10T09:57:40;11.20;97.40
40952;DHT22;26682;51.660;19.338;2022-11-10T09:59:47;11.20;92.90
40952;DHT22;26682;51.660;19.338;2022-11-10T10:02:24;11.10;93.30
40952;DHT22;26682;51.660;19.338;2022-11-10T10:14:41;11.00;99.90
40952;DHT22;26682;51.660;19.338;2022-11-10T10:17:05;11.00;99.90
40952;DHT22;26682;51.660;19.338;2022-11-10T10:19:47;11.10;99.90
40952;DHT22;26682;51.660;19.338;2022-11-10T10:24:14;11.30;99.90
40952;DHT22;26682;51.660;19.338;2022-11-10T10:26:26;11.40;93.20
40952;DHT22;26682;51.660;19.338;2022-11-10T10:28:45;11.50;62.60
40952;DHT22;26682;51.660;19.338;2022-11-10T10:30:49;11.50;47.00
40952;DHT22;26682;51.660;19.338;2022-11-10T10:32:59;11.60;18.80
40952;DHT22;26682;51.660;19.338;2022-11-10T10:35:12;11.60;15.70
40952;DHT22;26682;51.660;19.338;2022-11-10T10:37:25;11.70;2.90
40952;DHT22;26682;51.660;19.338;2022-11-10T10:39:43;11.60;1.00
40952;DHT22;26682;51.660;19.338;2022-11-10T10:41:48;11.60;1.00
40952;DHT22;26682;51.660;19.338;2022-11-10T10:43:59;11.50;1.00
40952;DHT22;26682;51.660;19.338;2022-11-10T10:46:13;11.50;1.00
40952;DHT22;26682;51.660;19.338;2022-11-10T10:48:28;11.50;1.00
40952;DHT22;26682;51.660;19.338;2022-11-10T10:50:35;11.50;1.00
40952;DHT22;26682;51.660;19.338;2022-11-10T10:52:40;11.50;1.00
40952;DHT22;26682;51.660;19.338;2022-11-10T10:54:44;11.50;1.00
40952;DHT22;26682;51.660;19.338;2022-11-10T10:56:49;11.50;1.00
40952;DHT22;26682;51.660;19.338;2022-11-10T10:59:03;11.60;1.00
40952;DHT22;26682;51.660;19.338;2022-11-10T11:03:27;11.70;1.00
40952;DHT22;26682;51.660;19.338;2022-11-10T11:05:32;11.70;1.00
40952;DHT22;26682;51.660;19.338;2022-11-10T11:07:37;11.80;1.00
40952;DHT22;26682;51.660;19.338;2022-11-10T11:09:43;11.80;1.00
40952;DHT22;26682;51.660;19.338;2022-11-10T11:12:03;11.80;1.00
40952;DHT22;26682;51.660;19.338;2022-11-10T11:14:28;11.80;1.00
40952;DHT22;26682;51.660;19.338;2022-11-10T11:16:48;11.80;1.00
40952;DHT22;26682;51.660;19.338;2022-11-10T11:18:53;11.80;1.00
40952;DHT22;26682;51.660;19.338;2022-11-10T11:25:42;11.70;1.00
40952;DHT22;26682;51.660;19.338;2022-11-10T11:30:23;11.70;1.00
40952;DHT22;26682;51.660;19.338;2022-11-10T11:32:44;11.80;1.00
40952;DHT22;26682;51.660;19.338;2022-11-10T11:44:57;11.90;1.00
40952;DHT22;26682;51.660;19.338;2022-11-10T11:47:30;11.90;1.00
40952;DHT22;26682;51.660;19.338;2022-11-10T11:49:48;11.90;1.00
40952;DHT22;26682;51.660;19.338;2022-11-10T11:56:40;12.10;1.00
40952;DHT22;26682;51.660;19.338;2022-11-10T11:59:33;12.20;1.00
40952;DHT22;26682;51.660;19.338;2022-11-10T12:04:03;12.00;1.00
40952;DHT22;26682;51.660;19.338;2022-11-10T12:06:31;12.00;1.00
40952;DHT22;26682;51.660;19.338;2022-11-10T12:09:00;12.00;1.00
40952;DHT22;26682;51.660;19.338;2022-11-10T12:13:46;12.00;1.00
40952;DHT22;26682;51.660;19.338;2022-11-10T12:16:17;12.00;1.00
40952;DHT22;26682;51.660;19.338;2022-11-10T12:18:39;12.10;1.00
40952;DHT22;26682;51.660;19.338;2022-11-10T12:28:14;12.10;1.00
40952;DHT22;26682;51.660;19.338;2022-11-10T12:30:19;12.00;1.00
40952;DHT22;26682;51.660;19.338;2022-11-10T12:34:49;11.90;1.00
40952;DHT22;26682;51.660;19.338;2022-11-10T12:36:56;11.90;1.00
40952;DHT22;26682;51.660;19.338;2022-11-10T12:41:17;11.90;1.00
40952;DHT22;26682;51.660;19.338;2022-11-10T12:45:48;11.90;1.00
40952;DHT22;26682;51.660;19.338;2022-11-10T12:47:55;11.90;1.00
40952;DHT22;26682;51.660;19.338;2022-11-10T12:50:18;11.80;1.00
40952;DHT22;26682;51.660;19.338;2022-11-10T12:52:31;11.80;1.00
40952;DHT22;26682;51.660;19.338;2022-11-10T12:54:39;11.80;1.00
40952;DHT22;26682;51.660;19.338;2022-11-10T12:57:09;11.80;1.00
40952;DHT22;26682;51.660;19.338;2022-11-10T13:01:24;11.80;1.00
40952;DHT22;26682;51.660;19.338;2022-11-10T13:03:35;11.80;1.00
40952;DHT22;26682;51.660;19.338;2022-11-10T13:05:41;11.80;1.00
40952;DHT22;26682;51.660;19.338;2022-11-10T13:07:50;11.80;1.00
40952;DHT22;26682;51.660;19.338;2022-11-10T13:10:23;11.90;1.00
40952;DHT22;26682;51.660;19.338;2022-11-10T13:12:28;11.90;1.00
40952;DHT22;26682;51.660;19.338;2022-11-10T13:14:33;11.90;1.00
40952;DHT22;26682;51.660;19.338;2022-11-10T13:20:52;11.90;99.90
40952;DHT22;26682;51.660;19.338;2022-11-10T13:22:57;12.00;99.90
40952;DHT22;26682;51.660;19.338;2022-11-10T13:29:52;12.00;99.90
40952;DHT22;26682;51.660;19.338;2022-11-10T13:31:59;12.10;99.90
40952;DHT22;26682;51.660;19.338;2022-11-10T13:34:39;12.10;99.90
40952;DHT22;26682;51.660;19.338;2022-11-10T13:36:46;12.00;99.90
40952;DHT22;26682;51.660;19.338;2022-11-10T13:38:51;12.00;99.90
40952;DHT22;26682;51.660;19.338;2022-11-10T13:41:21;12.00;99.90
40952;DHT22;26682;51.660;19.338;2022-11-10T13:43:26;11.90;99.90
40952;DHT22;26682;51.660;19.338;2022-11-10T13:45:34;11.90;99.90
40952;DHT22;26682;51.660;19.338;2022-11-10T13:47:48;11.90;99.90
40952;DHT22;26682;51.660;19.338;2022-11-10T13:50:25;11.80;99.90
40952;DHT22;26682;51.660;19.338;2022-11-10T13:55:36;11.80;99.90
40952;DHT22;26682;51.660;19.338;2022-11-10T14:04:42;11.50;99.90
40952;DHT22;26682;51.660;19.338;2022-11-10T14:06:51;11.40;99.90
40952;DHT22;26682;51.660;19.338;2022-11-10T14:09:19;11.40;1.00
40952;DHT22;26682;51.660;19.338;2022-11-10T14:11:33;11.40;1.00
40952;DHT22;26682;51.660;19.338;2022-11-10T14:14:32;11.30;1.00
40952;DHT22;26682;51.660;19.338;2022-11-10T14:16:19;11.30;1.00
40952;DHT22;26682;51.660;19.338;2022-11-10T14:21:40;11.20;1.00
40952;DHT22;26682;51.660;19.338;2022-11-10T14:24:13;11.20;1.00
40952;DHT22;26682;51.660;19.338;2022-11-10T14:26:28;11.10;1.00
40952;DHT22;26682;51.660;19.338;2022-11-10T14:28:34;11.10;1.00
40952;DHT22;26682;51.660;19.338;2022-11-10T14:30:49;11.10;1.00
40952;DHT22;26682;51.660;19.338;2022-11-10T14:33:12;11.10;1.00
40952;DHT22;26682;51.660;19.338;2022-11-10T14:35:21;10.90;1.00
40952;DHT22;26682;51.660;19.338;2022-11-10T14:37:27;10.80;1.00
40952;DHT22;26682;51.660;19.338;2022-11-10T14:39:33;10.80;1.00
40952;DHT22;26682;51.660;19.338;2022-11-10T14:41:47;10.70;1.00
40952;DHT22;26682;51.660;19.338;2022-11-10T14:44:22;10.60;1.00
40952;DHT22;26682;51.660;19.338;2022-11-10T14:46:27;10.50;1.00
40952;DHT22;26682;51.660;19.338;2022-11-10T14:48:34;10.50;1.00
40952;DHT22;26682;51.660;19.338;2022-11-10T14:50:39;10.40;1.00
40952;DHT22;26682;51.660;19.338;2022-11-10T14:52:47;10.30;1.00
40952;DHT22;26682;51.660;19.338;2022-11-10T14:54:52;10.30;1.00